Olathe, KS (66051)

2:04 PM CST on February 08, 2016 (GMT -0600)
Northgate Estates | | Change Station
CLOSE
Current Station
Personal Weather Station
Location: Olathe, KS
Elevation: 970 ft
Nearby Weather Stations
Active Advisory: Wind Advisory

Elev 970 ft 38.89 °N, 94.82 °W | Updated 8 seconds ago

Overcast
Overcast
33.6 °F
Feels Like 27 °F
N
8.1
Wind Variable Wind from WSW
Gusts 16.0 mph

Today
High -- | Low -- °F
--% Chance of Precip.
Yesterday
High -- | Low -- °F
Precip. -- in
Pressure 30.07 in
Visibility 10.0 miles
Clouds Mostly Cloudy 3500 ft
Overcast 4800 ft
Windchill 27 °F
Dew Point 21 °F
Humidity 60%
Rainfall 0.00 in
Snow Depth Not available.
7:19 AM 5:48 PM
New Moon, 0% visible
METAR KOJC 081953Z 32017G26KT 10SM BKN035 OVC048 00/M08 A3005 RMK AO2 PK WND 34035/1915 SLP183 T00001083
Pressure 30.07 in
Visibility 10.0 miles
Clouds Mostly Cloudy 3500 ft
Overcast 4800 ft
Windchill 27 °F
Dew Point 21 °F
Humidity 60%
Rainfall 0.00 in
Snow Depth Not available.
7:19 AM 5:48 PM
New Moon, 0% visible
METAR KOJC 081953Z 32017G26KT 10SM BKN035 OVC048 00/M08 A3005 RMK AO2 PK WND 34035/1915 SLP183 T00001083

10-Day Weather Forecast

Almanac

Astronomy

Feb. 08, 2016 Rise Set
Actual Time
Civil Twilight
Nautical Twilight
Astronomical Twilight
Moon
Length of Visible Light
Length of Day
Tomorrow will be .
, % of the Moon is Illuminated

Today's Extremes

State Highs State Lows

Community

WunderPhotos

Upload Photos

1,891,503 photos uploaded!

WunderBlog® & News

Nearby

Air Quality

  Air Quality AQ Index Pollutant
Not available.

Snow Depth

Station Depth Elevation

Earthquake Activity

City Distance Mag. Time & Date
Minimum magnitude displayed is 2.5.

Coastal Water Temperatures

Place Temperature

Stations

Nearby Weather Stations

Station Location Temp. Windchill Dew Point Humidity Wind Precip. Elev Updated Type
                   

Watches & Warnings

Wind Advisory
Issued: 11:48 AM CST Feb. 8, 2016 – National Weather Service

... Wind Advisory remains in effect until 6 PM CST this evening...

* timing... through early this evening.

* Winds... sustained from 25 to 35 mph with gusts in excess of 45 mph.

* Impacts... strong Crosswinds on highways will likely make travel
difficult... particularly for high profile vehicles. In
addition... patchy areas of snow showers combined with these strong
winds will occasionally reduce visibilities.

Precautionary/preparedness actions...

A Wind Advisory means that winds of 35 mph are expected. Winds
this strong can make driving difficult... especially for high
profile vehicles. Use extra caution.